00:10
Airports
Links
Donate
Help keep this website running!
PayPal
Bitcoin
METAR
SKRG 250000Z VRB02KT 9999 SCT015TCU SCT080 16/14 A3024 RMK TCU E/S
Current Weather Conditions at SKRG
VFR 00:00:00 25-11-17
Altimeter:30.24 hg
Temp:16.0°c 61°f
Dew point:14.0°c 57°f
Wind:2 knots, 2.3 mph, 1 m/s,
Variable direction
Visibility:6.21 statute miles
8000(SCT) Scattered
1500(SCT) Scattered
Past METAR reports
VFR 23:00:00 24-11-17
Altimeter:30.21 hg
Temp:18.0°c 64°f
Dew point:13.0°c 55°f
Wind:2 knots, 2.3 mph, 1 m/s,
Variable direction
Visibility:6.21 statute miles
8000(SCT) Scattered
1800(SCT) Scattered
SKRG 242300Z VRB02KT 9999 SCT018TCU SCT080 18/13 A3021 RMK TCU E/S
VFR 22:00:00 24-11-17
Altimeter:30.20 hg
Temp:18.0°c 64°f
Dew point:13.0°c 55°f
Wind:2 knots, 2.3 mph, 1 m/s,
Variable direction
Visibility:6.21 statute miles
8000(SCT) Scattered
1700(SCT) Scattered
SKRG 242200Z VRB02KT 9999 SCT017TCU SCT080 18/13 A3020 RMK TCU S/W/N
VFR 21:00:00 24-11-17
Altimeter:30.20 hg
Temp:18.0°c 64°f
Dew point:13.0°c 55°f
Wind:8 knots, 9.2 mph, 4 m/s, from 330°
Visibility:6.21 statute miles
8000(SCT) Scattered
1500(SCT) Scattered
SKRG 242100Z 33008KT 9999 SCT015CB SCT080 18/13 A3020 RMK CB S/W/N
VFR 20:00:00 24-11-17
Altimeter:30.20 hg
Temp:19.0°c 66°f
Dew point:14.0°c 57°f
Wind:6 knots, 6.9 mph, 3 m/s, from 10°
Visibility:6.21 statute miles
8000(SCT) Scattered
1500(SCT) Scattered
SKRG 242000Z 01006KT 9999 VCSH SCT015CB SCT080 19/14 A3020 RMK CB S/W/N VCSH W/N
VFR 19:00:00 24-11-17
Altimeter:30.22 hg
Temp:22.0°c 72°f
Dew point:13.0°c 55°f
Wind:6 knots, 6.9 mph, 3 m/s, from 120°
Visibility:6.21 statute miles
20000(SCT) Scattered
1800(SCT) Scattered
SKRG 241900Z 12006KT 9999 SCT018CB SCT200 22/13 A3022 RMK CB S/W
TAF
TAF COR SKRG 242300Z 250024 33008KT 9999 DZ SCT015CB SCT080 TEMPO 2509/2513 4000 BCFG SCT007 TEMPO 2519/2523 12010KT 5000 TSRA SCT017CB TX22/2518Z TN13/2510Z
Forecast at SKRG
00:00 25-11-17 to 00:00 26-11-17
DZ
Wind:8 Knots from 330°
Visibility:6.21 statute miles
1500SCT Scattered
8000SCT Scattered
TEMPO 09:00 25-11-17 to 13:00 25-11-17
BCFG
Visibility:2.49 statute miles
700SCT Scattered
TEMPO 19:00 25-11-17 to 23:00 25-11-17
TSRA
Wind:10 Knots from 120°
Visibility:3.11 statute miles
1700SCT Scattered